createdAt,value
2018-03-30T00:00:33.090Z,5.2
2018-03-30T00:01:33.108Z,5.18
2018-03-30T00:02:33.124Z,5.15
2018-03-30T00:03:32.879Z,5.2
2018-03-30T00:04:33.163Z,5.27
2018-03-30T00:05:33.173Z,5.3
2018-03-30T00:08:33.260Z,5.45
2018-03-30T00:09:33.252Z,5.42
2018-03-30T00:10:33.252Z,5.45
2018-03-30T00:11:33.269Z,5.53
2018-03-30T00:12:33.297Z,5.39
2018-03-30T00:13:33.046Z,5.48
2018-03-30T00:14:33.061Z,5.45
2018-03-30T00:15:33.339Z,5.45
2018-03-30T00:16:33.351Z,5.45
2018-03-30T00:17:33.364Z,5.57
2018-03-30T00:18:33.126Z,5.53
2018-03-30T00:19:33.398Z,5.46
2018-03-30T00:20:33.420Z,5.45
2018-03-30T00:21:33.178Z,5.49
2018-03-30T00:22:48.104Z,5.56
2018-03-30T00:23:33.464Z,5.57
2018-03-30T00:24:33.481Z,5.58
2018-03-30T00:25:33.501Z,5.64
2018-03-30T00:26:33.515Z,5.57
2018-03-30T00:27:33.533Z,5.61
2018-03-30T00:28:33.543Z,5.61
2018-03-30T00:29:33.568Z,5.56
2018-03-30T00:30:33.582Z,5.57
2018-03-30T00:31:33.595Z,5.56
2018-03-30T00:32:33.610Z,5.56
2018-03-30T00:33:33.446Z,5.49
2018-03-30T00:34:33.642Z,5.46
2018-03-30T00:35:33.139Z,5.53
2018-03-30T00:36:33.674Z,5.49
2018-03-30T00:37:33.435Z,5.46
2018-03-30T00:38:33.717Z,5.48
2018-03-30T00:39:33.758Z,5.43
2018-03-30T00:40:33.738Z,5.49
2018-03-30T00:41:33.496Z,5.53
2018-03-30T00:42:48.433Z,5.51
2018-03-30T00:43:33.788Z,5.49
2018-03-30T00:44:33.802Z,5.51
2018-03-30T00:45:33.566Z,5.57
2018-03-30T00:46:48.493Z,5.56
2018-03-30T00:47:33.853Z,5.49
2018-03-30T00:48:33.868Z,5.4
2018-03-30T00:49:33.886Z,5.43
2018-03-30T00:50:33.900Z,5.49
2018-03-30T00:51:33.969Z,5.48
2018-03-30T00:52:33.935Z,5.57
2018-03-30T00:53:33.947Z,5.56
2018-03-30T00:54:48.631Z,5.46
2018-03-30T00:55:33.724Z,5.56
2018-03-30T00:56:34.004Z,5.58
2018-03-30T00:57:34.014Z,5.45
2018-03-30T00:58:33.770Z,5.42
2018-03-30T00:59:34.046Z,5.58
2018-03-30T01:00:48.721Z,5.49
2018-03-30T01:01:48.737Z,5.46
2018-03-30T01:02:34.149Z,5.43
2018-03-30T01:03:34.112Z,5.42
2018-03-30T01:04:33.867Z,5.28
2018-03-30T01:05:34.143Z,5.36
2018-03-30T01:06:34.159Z,5.42
2018-03-30T01:07:34.175Z,5.24
2018-03-30T01:08:33.931Z,5.27
2018-03-30T01:11:34.248Z,5.3
2018-03-30T01:12:34.254Z,5.35
2018-03-30T01:13:34.285Z,5.36
2018-03-30T01:15:34.309Z,5.27
2018-03-30T01:16:34.319Z,5.24
2018-03-30T01:17:48.994Z,5.27
2018-03-30T01:18:34.098Z,5.25
2018-03-30T01:19:34.369Z,5.15
2018-03-30T01:20:34.486Z,5.04
2018-03-30T01:21:34.406Z,5.06
2018-03-30T01:22:34.422Z,5.09
2018-03-30T01:23:34.175Z,5.15
2018-03-30T01:24:34.449Z,5.18
2018-03-30T01:25:34.465Z,5.17
2018-03-30T01:26:49.141Z,5.17
2018-03-30T01:27:33.976Z,5.1
2018-03-30T01:28:34.512Z,5.1
2018-03-30T01:29:49.189Z,5.13
2018-03-30T01:30:34.281Z,5.07
2018-03-30T01:31:34.605Z,5.06
2018-03-30T01:32:49.233Z,4.91
2018-03-30T01:33:49.249Z,4.88
2018-03-30T01:34:34.606Z,4.94
2018-03-30T01:35:34.362Z,4.92
2018-03-30T01:37:34.654Z,4.85
2018-03-30T01:39:34.685Z,4.82
2018-03-30T01:40:34.708Z,4.75
2018-03-30T01:43:34.753Z,4.65
2018-03-30T01:45:34.784Z,4.63
2018-03-30T01:46:34.795Z,4.54
2018-03-30T01:47:34.556Z,4.52
2018-03-30T01:48:34.570Z,4.42
2018-03-30T01:49:34.845Z,4.5
2018-03-30T01:50:49.517Z,4.54
2018-03-30T01:51:34.875Z,4.45
2018-03-30T01:52:34.893Z,4.52
2018-03-30T01:53:34.906Z,4.41
2018-03-30T01:54:34.677Z,4.34
2018-03-30T01:55:34.949Z,4.36
2018-03-30T01:56:34.955Z,4.32
2018-03-30T01:58:34.987Z,4.4
2018-03-30T01:59:35.054Z,4.23
2018-03-30T02:00:35.018Z,4.26
2018-03-30T02:01:35.043Z,4.22
2018-03-30T02:02:35.062Z,4.27
2018-03-30T02:03:35.064Z,4.24
2018-03-30T02:04:34.870Z,4.24
2018-03-30T02:05:49.758Z,4.27
2018-03-30T02:06:35.112Z,4.37
2018-03-30T02:07:34.871Z,4.4
2018-03-30T02:08:34.884Z,4.33
2018-03-30T02:10:35.182Z,4.36
2018-03-30T02:11:35.195Z,4.37
2018-03-30T02:12:35.208Z,4.37
2018-03-30T02:13:35.222Z,4.4
2018-03-30T02:14:35.238Z,4.41
2018-03-30T02:15:35.254Z,4.22
2018-03-30T02:16:35.282Z,4.36
2018-03-30T02:17:49.947Z,4.34
2018-03-30T02:18:35.044Z,4.34
2018-03-30T02:19:34.798Z,4.44
2018-03-30T02:20:49.993Z,4.44
2018-03-30T02:21:35.349Z,4.52
2018-03-30T02:23:35.379Z,4.4
2018-03-30T02:24:35.472Z,4.36
2018-03-30T02:25:35.150Z,4.34
2018-03-30T02:26:35.432Z,4.37
2018-03-30T02:27:35.445Z,4.36
2018-03-30T02:28:35.462Z,4.37
2018-03-30T02:30:35.556Z,4.3
2018-03-30T02:31:35.511Z,4.29
2018-03-30T02:32:35.541Z,4.32
2018-03-30T02:33:35.547Z,4.22
2018-03-30T02:34:35.555Z,4.2
2018-03-30T02:35:35.572Z,4.18
2018-03-30T02:37:35.604Z,4.34
2018-03-30T02:38:35.360Z,4.37
2018-03-30T02:39:35.374Z,4.5
2018-03-30T02:40:35.643Z,4.45
2018-03-30T02:41:35.398Z,4.44
2018-03-30T02:42:35.681Z,4.51
2018-03-30T02:43:35.715Z,4.48
2018-03-30T02:44:35.711Z,4.6
2018-03-30T02:45:50.120Z,4.48
2018-03-30T02:46:35.749Z,4.5
2018-03-30T02:47:35.502Z,4.48
2018-03-30T02:49:35.787Z,4.63
2018-03-30T02:50:35.547Z,4.69
2018-03-30T02:51:35.557Z,4.66
2018-03-30T02:53:35.867Z,4.59
2018-03-30T02:54:35.964Z,4.62
2018-03-30T02:55:35.623Z,4.67
2018-03-30T02:57:35.402Z,4.62
2018-03-30T02:58:35.408Z,4.63
2018-03-30T02:59:35.954Z,4.62
2018-03-30T03:00:35.975Z,4.48
2018-03-30T03:01:50.628Z,4.41
2018-03-30T03:02:35.990Z,4.44
2018-03-30T03:03:36.007Z,4.42
2018-03-30T03:04:36.024Z,4.33
2018-03-30T03:05:36.061Z,4.33
2018-03-30T03:06:35.789Z,4.36
2018-03-30T03:07:36.077Z,4.37
2018-03-30T03:08:36.086Z,4.36
2018-03-30T03:09:36.110Z,4.24
2018-03-30T03:10:36.109Z,4.29
2018-03-30T03:11:36.126Z,4.11
2018-03-30T03:12:50.539Z,4.08
2018-03-30T03:13:36.159Z,4.06
2018-03-30T03:14:36.174Z,4.04
2018-03-30T03:17:50.880Z,3.91
2018-03-30T03:18:36.334Z,3.93
2018-03-30T03:19:35.996Z,3.88
2018-03-30T03:20:36.265Z,3.94
2018-03-30T03:21:36.284Z,3.76
2018-03-30T03:22:50.956Z,3.86
2018-03-30T03:23:36.314Z,3.83
2018-03-30T03:24:50.984Z,3.75
2018-03-30T03:25:51.001Z,3.76
2018-03-30T03:26:36.358Z,3.76
2018-03-30T03:27:36.372Z,3.72
2018-03-30T03:28:36.137Z,3.6
2018-03-30T03:29:36.401Z,3.6
2018-03-30T03:30:35.907Z,3.61
2018-03-30T03:31:36.440Z,3.51
2018-03-30T03:33:36.469Z,3.48
2018-03-30T03:34:36.479Z,3.52
2018-03-30T03:35:35.977Z,3.36
2018-03-30T03:36:36.561Z,3.35
2018-03-30T03:37:36.630Z,3.32
2018-03-30T03:38:51.199Z,3.29
2018-03-30T03:39:51.213Z,3.2
2018-03-30T03:40:36.574Z,3.18
2018-03-30T03:42:36.602Z,3.13
2018-03-30T03:43:36.357Z,3.06
2018-03-30T03:44:36.632Z,3.08
2018-03-30T03:45:36.646Z,3.18
2018-03-30T03:46:36.402Z,3.03
2018-03-30T03:47:36.685Z,3.06
2018-03-30T03:48:36.694Z,3.06
2018-03-30T03:49:36.706Z,2.96
2018-03-30T03:50:36.723Z,2.97
2018-03-30T03:51:36.477Z,2.92
2018-03-30T03:52:36.492Z,2.85
2018-03-30T03:53:36.543Z,2.95
2018-03-30T03:54:36.782Z,2.89
2018-03-30T03:55:36.544Z,2.92
2018-03-30T03:56:51.468Z,2.81
2018-03-30T03:57:36.307Z,2.79
2018-03-30T03:58:36.844Z,2.89
2018-03-30T03:59:36.960Z,2.79
2018-03-30T04:00:36.616Z,2.75
2018-03-30T04:01:36.624Z,2.82
2018-03-30T04:03:36.913Z,2.77
2018-03-30T04:04:51.328Z,2.71
2018-03-30T04:05:36.690Z,2.67
2018-03-30T04:06:36.959Z,2.81
2018-03-30T04:07:36.973Z,2.84
2018-03-30T04:08:36.993Z,2.82
2018-03-30T04:09:36.744Z,2.75
2018-03-30T04:10:36.759Z,2.71
2018-03-30T04:11:36.775Z,2.66
2018-03-30T04:12:37.048Z,2.64
2018-03-30T04:13:37.067Z,2.59
2018-03-30T04:14:36.846Z,2.52
2018-03-30T04:15:36.675Z,2.46
2018-03-30T04:16:36.591Z,2.54
2018-03-30T04:17:36.863Z,2.54
2018-03-30T04:18:37.139Z,2.49
2018-03-30T04:19:37.150Z,2.46
2018-03-30T04:20:51.825Z,2.52
2018-03-30T04:21:51.940Z,2.34
2018-03-30T04:23:36.957Z,2.46
2018-03-30T04:24:37.227Z,2.36
2018-03-30T04:26:37.273Z,2.39
2018-03-30T04:27:37.267Z,2.38
2018-03-30T04:28:37.288Z,2.35
2018-03-30T04:29:37.299Z,2.36
2018-03-30T04:30:37.320Z,2.43
2018-03-30T04:31:37.329Z,2.43
2018-03-30T04:32:37.094Z,2.43
2018-03-30T04:33:37.360Z,2.42
2018-03-30T04:34:37.369Z,2.34
2018-03-30T04:37:37.418Z,2.39
2018-03-30T04:38:37.431Z,2.35
2018-03-30T04:39:37.445Z,2.39
2018-03-30T04:40:37.523Z,2.27
2018-03-30T04:41:37.482Z,2.3
2018-03-30T04:42:37.492Z,2.28
2018-03-30T04:43:52.164Z,2.16
2018-03-30T04:44:37.518Z,2.14
2018-03-30T04:45:37.535Z,2.21
2018-03-30T04:46:51.951Z,2.16
2018-03-30T04:47:37.559Z,2.3
2018-03-30T04:48:37.573Z,2.2
2018-03-30T04:49:37.588Z,2.17
2018-03-30T04:50:37.607Z,2.1
2018-03-30T04:51:37.624Z,2.28
2018-03-30T04:52:52.288Z,2.14
2018-03-30T04:53:37.646Z,2.16
2018-03-30T04:54:37.663Z,2.25
2018-03-30T04:55:37.678Z,2.17
2018-03-30T04:56:37.707Z,2.12
2018-03-30T04:57:37.710Z,2.21
2018-03-30T04:58:37.724Z,2.3
2018-03-30T04:59:52.394Z,2.28
2018-03-30T05:00:37.748Z,2.31
2018-03-30T05:01:37.767Z,2.31
2018-03-30T05:02:37.777Z,2.43
2018-03-30T05:03:37.792Z,2.39
2018-03-30T05:04:37.549Z,2.46
2018-03-30T05:05:37.562Z,2.48
2018-03-30T05:06:37.577Z,2.35
2018-03-30T05:07:52.524Z,2.31
2018-03-30T05:08:37.611Z,2.46
2018-03-30T05:10:37.898Z,2.34
2018-03-30T05:11:37.909Z,2.48
2018-03-30T05:12:37.926Z,2.45
2018-03-30T05:13:37.939Z,2.59
2018-03-30T05:14:37.695Z,2.48
2018-03-30T05:15:37.708Z,2.52
2018-03-30T05:16:37.743Z,2.64
2018-03-30T05:17:52.396Z,2.6
2018-03-30T05:18:38.017Z,2.63
2018-03-30T05:19:38.131Z,2.6
2018-03-30T05:20:38.045Z,2.59
2018-03-30T05:21:38.158Z,2.57
2018-03-30T05:22:37.811Z,2.71
2018-03-30T05:23:38.091Z,2.75
2018-03-30T05:24:38.099Z,2.79
2018-03-30T05:25:38.121Z,2.93
2018-03-30T05:26:38.140Z,2.99
2018-03-30T05:28:37.904Z,3.28
2018-03-30T05:29:37.918Z,3.52
2018-03-30T05:30:38.193Z,3.72
2018-03-30T05:31:38.212Z,3.91
2018-03-30T05:32:38.227Z,4.11
2018-03-30T05:33:37.979Z,4.06
2018-03-30T05:34:38.436Z,3.97
2018-03-30T05:35:38.272Z,3.79
2018-03-30T05:36:38.026Z,3.7
2018-03-30T05:37:38.307Z,3.62
2018-03-30T05:38:38.320Z,3.79
2018-03-30T05:39:52.999Z,3.78
2018-03-30T05:40:38.352Z,3.76
2018-03-30T05:41:53.032Z,3.93
2018-03-30T05:42:38.388Z,3.94
2018-03-30T05:43:38.412Z,3.96
2018-03-30T05:44:38.419Z,3.93
2018-03-30T05:45:38.435Z,4.11
2018-03-30T05:46:38.457Z,4.14
2018-03-30T05:47:38.476Z,4.2
2018-03-30T05:48:38.492Z,4.26
2018-03-30T05:49:38.501Z,4.36
2018-03-30T05:50:38.536Z,4.44
2018-03-30T05:51:38.537Z,4.5
2018-03-30T05:52:38.561Z,4.55
2018-03-30T05:53:38.574Z,4.47
2018-03-30T05:54:38.595Z,4.44
2018-03-30T05:55:53.275Z,4.51
2018-03-30T05:57:38.386Z,4.67
2018-03-30T05:58:38.664Z,4.78
2018-03-30T05:59:38.689Z,4.82
2018-03-30T06:00:38.443Z,4.94
2018-03-30T06:01:38.725Z,4.96
2018-03-30T06:02:38.749Z,5.27
2018-03-30T06:03:38.245Z,5.39
2018-03-30T06:04:38.788Z,5.71
2018-03-30T06:05:38.862Z,6.11
2018-03-30T06:06:38.828Z,6.17
2018-03-30T06:07:38.843Z,6.28
2018-03-30T06:08:38.608Z,6.22
2018-03-30T06:10:53.579Z,5.57
2018-03-30T06:11:53.601Z,5.58
2018-03-30T06:12:38.957Z,5.51
2018-03-30T06:13:38.976Z,5.53
2018-03-30T06:14:39.000Z,5.79
2018-03-30T06:15:38.765Z,5.96
2018-03-30T06:16:39.043Z,5.89
2018-03-30T06:17:39.069Z,5.82
2018-03-30T06:18:39.098Z,5.86
2018-03-30T06:19:39.112Z,6.17
2018-03-30T06:20:39.136Z,6.58
2018-03-30T06:21:39.159Z,6.7
2018-03-30T06:22:39.183Z,7.1
2018-03-30T06:23:39.207Z,7.58
2018-03-30T06:24:39.230Z,7.61
2018-03-30T06:25:38.998Z,7.6
2018-03-30T06:26:39.022Z,7.6
2018-03-30T06:28:39.071Z,7.42
2018-03-30T06:29:39.357Z,7.49
2018-03-30T06:30:39.379Z,7.61
2018-03-30T06:31:38.887Z,7.63
2018-03-30T06:33:39.457Z,8.12
2018-03-30T06:34:39.477Z,8.47
2018-03-30T06:35:39.250Z,8.45
2018-03-30T06:36:39.039Z,8.48
2018-03-30T06:37:39.560Z,8.55
2018-03-30T06:38:39.579Z,8.45
2018-03-30T06:39:39.620Z,8.53
2018-03-30T06:40:39.630Z,8.55
2018-03-30T06:41:39.657Z,8.8
2018-03-30T06:43:39.707Z,9.05
2018-03-30T06:44:39.739Z,8.76
2018-03-30T06:45:39.853Z,8.44
2018-03-30T06:46:39.522Z,8.36
2018-03-30T06:47:39.545Z,8.73
2018-03-30T06:48:39.828Z,9.11
2018-03-30T06:49:54.563Z,9.39
2018-03-30T06:50:39.625Z,9.46
2018-03-30T06:51:39.908Z,9.61
2018-03-30T06:52:54.331Z,9.75
2018-03-30T06:53:39.955Z,9.71
2018-03-30T06:54:39.982Z,9.65
2018-03-30T06:55:40.006Z,9.83
2018-03-30T06:56:40.036Z,9.93
2018-03-30T06:57:40.072Z,9.72
2018-03-30T06:58:40.086Z,9.71
2018-03-30T06:59:39.856Z,9.64
2018-03-30T07:00:40.136Z,9.36
2018-03-30T07:01:39.899Z,9.02
2018-03-30T07:02:40.182Z,8.95
2018-03-30T07:03:40.206Z,8.77
2018-03-30T07:04:39.974Z,8.53
2018-03-30T07:05:40.258Z,8.68
2018-03-30T07:06:40.027Z,8.73
2018-03-30T07:07:40.307Z,8.89
2018-03-30T07:08:54.733Z,8.96
2018-03-30T07:09:40.109Z,9.08
2018-03-30T07:10:40.389Z,9.04
2018-03-30T07:11:40.414Z,8.43
2018-03-30T07:12:40.432Z,8.29
2018-03-30T07:14:55.143Z,8.66
2018-03-30T07:16:40.531Z,8.5
2018-03-30T07:17:40.564Z,8.91
2018-03-30T07:18:40.579Z,8.56
2018-03-30T07:19:40.607Z,8.26
2018-03-30T07:20:40.627Z,8.01
2018-03-30T07:21:55.312Z,7.93
2018-03-30T07:22:40.790Z,8.07
2018-03-30T07:23:40.704Z,8.33
2018-03-30T07:24:40.730Z,8.52
2018-03-30T07:25:40.746Z,8.8
2018-03-30T07:26:40.515Z,9.01
2018-03-30T07:27:40.537Z,9.33
2018-03-30T07:28:40.947Z,9.42
2018-03-30T07:30:55.270Z,8.84
2018-03-30T07:31:40.893Z,8.84
2018-03-30T07:32:40.919Z,8.83
2018-03-30T07:33:40.947Z,8.37
2018-03-30T07:34:40.969Z,8.2
2018-03-30T07:35:40.730Z,8.08
2018-03-30T07:36:41.019Z,8.08
2018-03-30T07:37:41.036Z,8.41
2018-03-30T07:38:40.800Z,8.43
2018-03-30T07:39:40.824Z,8.83
2018-03-30T07:40:55.507Z,8.99
2018-03-30T07:41:40.970Z,9.33
2018-03-30T07:42:41.156Z,9.58
2018-03-30T07:43:41.177Z,9.79
2018-03-30T07:44:40.942Z,9.72
2018-03-30T07:47:41.420Z,10.11
2018-03-30T07:48:41.298Z,10.23
2018-03-30T07:49:41.325Z,10.53
2018-03-30T07:50:41.086Z,10.56
2018-03-30T07:51:41.114Z,10.22
2018-03-30T07:52:41.396Z,10.15
2018-03-30T07:53:41.419Z,10.05
2018-03-30T07:54:56.103Z,10.11
2018-03-30T07:55:41.209Z,10.2
2018-03-30T07:56:55.893Z,10.18
2018-03-30T07:57:41.630Z,10.23
2018-03-30T07:58:41.541Z,10.34
2018-03-30T08:01:41.616Z,10.29
2018-03-30T08:02:56.297Z,10.45
2018-03-30T08:03:41.718Z,10.47
2018-03-30T08:04:41.426Z,10.32
2018-03-30T08:05:41.712Z,10.38
2018-03-30T08:06:41.787Z,10.14
2018-03-30T08:07:41.759Z,10.17
2018-03-30T08:08:41.520Z,10.32
2018-03-30T08:09:41.804Z,10.44
2018-03-30T08:10:41.827Z,10.53
2018-03-30T08:11:41.851Z,10.33
2018-03-30T08:12:41.616Z,10.22
2018-03-30T08:13:41.644Z,10.09
2018-03-30T08:14:41.923Z,9.71
2018-03-30T08:15:41.945Z,9.66
2018-03-30T08:16:41.971Z,9.96
2018-03-30T08:17:56.394Z,10.01
2018-03-30T08:19:42.053Z,10.05
2018-03-30T08:20:42.065Z,10.07
2018-03-30T08:21:42.090Z,10.34
2018-03-30T08:22:41.853Z,10.51
2018-03-30T08:23:41.876Z,10.74
2018-03-30T08:24:41.640Z,10.74
2018-03-30T08:25:56.841Z,10.76
2018-03-30T08:26:42.218Z,10.82
2018-03-30T08:27:42.242Z,10.89
2018-03-30T08:28:41.995Z,11.25
2018-03-30T08:30:42.300Z,11.76
2018-03-30T08:31:42.369Z,12.19
2018-03-30T08:32:42.347Z,12.45
2018-03-30T08:33:42.372Z,12.68
2018-03-30T08:34:42.136Z,12.96
2018-03-30T08:36:42.445Z,12.86
2018-03-30T08:37:42.209Z,12.85
2018-03-30T08:38:42.494Z,12.77
2018-03-30T08:39:57.178Z,12.72
2018-03-30T08:40:57.203Z,12.79
2018-03-30T08:41:42.311Z,12.95
2018-03-30T08:42:42.590Z,13.12
2018-03-30T08:43:42.357Z,13.38
2018-03-30T08:44:42.641Z,13.48
2018-03-30T08:45:42.407Z,13.52
2018-03-30T08:48:42.742Z,13.62
2018-03-30T08:49:57.166Z,13.62
2018-03-30T08:50:42.793Z,13.67
2018-03-30T08:51:42.815Z,13.67
2018-03-30T08:52:42.838Z,13.63
2018-03-30T08:53:42.866Z,13.46
2018-03-30T08:54:42.899Z,13.19
2018-03-30T08:55:42.915Z,12.83
2018-03-30T08:56:57.600Z,12.78
2018-03-30T08:57:57.625Z,12.7
2018-03-30T08:58:42.991Z,12.53
2018-03-30T08:59:43.015Z,12.37
2018-03-30T09:00:42.779Z,12.01
2018-03-30T09:01:42.804Z,11.76
2018-03-30T09:02:43.099Z,11.33
2018-03-30T09:03:43.112Z,11.33
2018-03-30T09:04:43.188Z,11.4
2018-03-30T09:05:57.822Z,11.47
2018-03-30T09:07:42.955Z,11.37
2018-03-30T09:08:43.282Z,11.32
2018-03-30T09:09:43.260Z,11.15
2018-03-30T09:10:43.280Z,11.11
2018-03-30T09:11:43.306Z,10.84
2018-03-30T09:12:43.332Z,10.79
2018-03-30T09:13:58.040Z,10.85
2018-03-30T09:14:43.386Z,11.21
2018-03-30T09:15:43.401Z,11.22
2018-03-30T09:16:43.172Z,11.27
2018-03-30T09:17:43.468Z,11.33
2018-03-30T09:18:43.487Z,11.28
2018-03-30T09:19:43.494Z,11.25
2018-03-30T09:20:43.518Z,11.24
2018-03-30T09:22:43.564Z,11.03
2018-03-30T09:23:43.586Z,10.91
2018-03-30T09:24:43.609Z,11.03
2018-03-30T09:25:43.373Z,11.24
2018-03-30T09:26:43.396Z,11.11
2018-03-30T09:27:43.683Z,11.11
2018-03-30T09:28:43.701Z,11.22
2018-03-30T09:29:43.725Z,11.37
2018-03-30T09:30:43.755Z,11.43
2018-03-30T09:31:58.169Z,11.29
2018-03-30T09:32:43.909Z,11.36
2018-03-30T09:33:43.819Z,11.47
2018-03-30T09:34:43.577Z,11.25
2018-03-30T09:35:43.862Z,10.94
2018-03-30T09:36:43.880Z,10.88
2018-03-30T09:38:43.930Z,11.15
2018-03-30T09:39:43.698Z,11.19
2018-03-30T09:40:43.969Z,11.24
2018-03-30T09:41:43.994Z,11.27
2018-03-30T09:42:43.764Z,11.21
2018-03-30T09:43:44.038Z,11.17
2018-03-30T09:44:44.064Z,10.92
2018-03-30T09:45:58.741Z,10.96
2018-03-30T09:46:44.116Z,10.85
2018-03-30T09:47:43.609Z,10.78
2018-03-30T09:48:44.148Z,10.88
2018-03-30T09:49:43.915Z,10.89
2018-03-30T09:50:44.194Z,10.64
2018-03-30T09:51:44.224Z,10.64
2018-03-30T09:52:58.914Z,10.92
2018-03-30T09:53:44.308Z,11.19
2018-03-30T09:54:44.283Z,11.18
2018-03-30T09:55:44.046Z,11.17
2018-03-30T09:56:44.326Z,11.27
2018-03-30T09:57:44.089Z,11.32
2018-03-30T09:58:59.030Z,11.47
2018-03-30T09:59:44.390Z,11.25
2018-03-30T10:00:44.416Z,11.17
2018-03-30T10:01:59.097Z,11.09
2018-03-30T10:02:58.858Z,11.28
2018-03-30T10:03:44.481Z,11.24
2018-03-30T10:04:44.566Z,11.22
2018-03-30T10:05:44.263Z,11.24
2018-03-30T10:06:44.032Z,11.33
2018-03-30T10:07:44.567Z,11.54
2018-03-30T10:09:44.360Z,11.52
2018-03-30T10:10:44.640Z,11.54
2018-03-30T10:11:44.807Z,11.65
2018-03-30T10:12:44.683Z,11.62
2018-03-30T10:13:44.702Z,11.65
2018-03-30T10:14:44.726Z,11.6
2018-03-30T10:15:59.401Z,11.75
2018-03-30T10:16:59.423Z,11.91
2018-03-30T10:17:44.793Z,12.04
2018-03-30T10:18:44.807Z,12.17
2018-03-30T10:19:44.831Z,12.16
2018-03-30T10:20:44.593Z,12.19
2018-03-30T10:21:44.874Z,12.29
2018-03-30T10:22:44.896Z,12.39
2018-03-30T10:23:44.919Z,12.32
2018-03-30T10:25:44.709Z,12.19
2018-03-30T10:26:44.727Z,11.96
2018-03-30T10:27:44.749Z,11.96
2018-03-30T10:28:44.775Z,12.13
2018-03-30T10:29:44.795Z,12.35
2018-03-30T10:30:59.737Z,12.1
2018-03-30T10:31:45.100Z,12.14
2018-03-30T10:32:45.120Z,12.24
2018-03-30T10:33:44.886Z,12.29
2018-03-30T10:34:44.906Z,12.54
2018-03-30T10:35:45.191Z,12.47
2018-03-30T10:36:45.216Z,12.46
2018-03-30T10:37:44.977Z,12.45
2018-03-30T10:39:45.281Z,11.95
2018-03-30T10:41:45.324Z,11.76
2018-03-30T10:42:45.087Z,11.79
2018-03-30T10:43:44.852Z,11.96
2018-03-30T10:44:45.138Z,11.98
2018-03-30T10:45:45.416Z,12.05
2018-03-30T10:46:45.441Z,12.04
2018-03-30T10:47:45.467Z,12.01
2018-03-30T10:48:45.275Z,11.8
2018-03-30T10:49:45.514Z,12.05
2018-03-30T10:50:45.528Z,12.05
2018-03-30T10:51:45.554Z,11.98
2018-03-30T10:52:45.574Z,12.01
2018-03-30T10:53:45.338Z,12.1
2018-03-30T10:54:45.621Z,11.99
2018-03-30T10:55:45.642Z,11.95
2018-03-30T10:57:00.329Z,12.01
2018-03-30T10:57:45.431Z,12.02
2018-03-30T10:58:45.711Z,12.29
2018-03-30T10:59:45.773Z,12.34
2018-03-30T11:00:45.494Z,12.38
2018-03-30T11:01:45.777Z,12.47
2018-03-30T11:02:45.802Z,12.52
2018-03-30T11:03:45.822Z,12.49
2018-03-30T11:05:45.610Z,12.07
2018-03-30T11:07:00.288Z,12.17
2018-03-30T11:07:45.907Z,12.27
2018-03-30T11:08:45.933Z,12.23
2018-03-30T11:09:45.954Z,12.12
2018-03-30T11:11:46.012Z,11.82
2018-03-30T11:13:00.690Z,11.75
2018-03-30T11:13:46.042Z,11.55
2018-03-30T11:14:45.809Z,11.61
2018-03-30T11:16:00.750Z,11.58
2018-03-30T11:16:46.108Z,11.64
2018-03-30T11:17:45.879Z,11.69
2018-03-30T11:18:45.891Z,11.55
2018-03-30T11:19:45.917Z,11.43
2018-03-30T11:20:46.195Z,11.47
2018-03-30T11:21:46.235Z,11.72
2018-03-30T11:22:46.250Z,11.67
2018-03-30T11:23:46.003Z,11.72
2018-03-30T11:24:46.023Z,11.72
2018-03-30T11:25:46.316Z,11.72
2018-03-30T11:26:46.330Z,11.98
2018-03-30T11:28:46.111Z,11.85
2018-03-30T11:29:46.395Z,11.91
2018-03-30T11:30:46.419Z,11.76
2018-03-30T11:31:46.437Z,11.72
2018-03-30T11:32:46.198Z,11.75
2018-03-30T11:33:46.478Z,11.72
2018-03-30T11:35:01.159Z,11.69
2018-03-30T11:35:46.521Z,11.54
2018-03-30T11:37:01.201Z,11.61
2018-03-30T11:37:46.565Z,11.52
2018-03-30T11:38:46.585Z,11.43
2018-03-30T11:39:46.351Z,11.33
2018-03-30T11:41:46.657Z,10.66
2018-03-30T11:42:46.413Z,10.42
2018-03-30T11:43:46.436Z,10.38
2018-03-30T11:44:47.039Z,10.6
2018-03-30T11:45:46.738Z,10.91
2018-03-30T11:46:46.760Z,11.04
2018-03-30T11:47:46.777Z,11.27
2018-03-30T11:48:46.800Z,11.27
2018-03-30T11:49:46.820Z,11.15
2018-03-30T11:51:01.502Z,10.97
2018-03-30T11:51:46.608Z,10.91
2018-03-30T11:52:46.886Z,10.7
2018-03-30T11:53:46.907Z,10.89
2018-03-30T11:54:46.409Z,10.96
2018-03-30T11:55:46.686Z,11.17
2018-03-30T11:56:46.966Z,11.1
2018-03-30T11:57:46.997Z,11.09
2018-03-30T11:58:47.080Z,11.02
2018-03-30T12:01:01.718Z,10.73
2018-03-30T12:01:47.088Z,10.74
2018-03-30T12:02:47.100Z,10.66
2018-03-30T12:03:46.854Z,10.51
2018-03-30T12:04:46.878Z,10.34
2018-03-30T12:05:46.900Z,10.64
2018-03-30T12:06:47.242Z,10.61
2018-03-30T12:07:47.048Z,10.52
2018-03-30T12:08:46.961Z,10.6
2018-03-30T12:09:47.239Z,10.76
2018-03-30T12:10:47.002Z,10.74
2018-03-30T12:11:47.024Z,10.85
2018-03-30T12:12:47.302Z,10.97
2018-03-30T12:13:47.067Z,11.1
2018-03-30T12:14:47.090Z,11.18
2018-03-30T12:16:02.024Z,11.25
2018-03-30T12:16:47.391Z,11.24
2018-03-30T12:17:47.405Z,11.25
2018-03-30T12:18:47.434Z,11.14
2018-03-30T12:19:47.449Z,11.03
2018-03-30T12:20:47.467Z,10.94
2018-03-30T12:22:02.150Z,11.14
2018-03-30T12:22:47.258Z,11.22
2018-03-30T12:23:47.531Z,11.27
2018-03-30T12:24:47.553Z,11.4
2018-03-30T12:25:47.585Z,11.54
2018-03-30T12:26:47.606Z,11.62
2018-03-30T12:27:47.098Z,11.76
2018-03-30T12:28:47.643Z,11.62
2018-03-30T12:30:47.778Z,11.57
2018-03-30T12:32:02.120Z,11.43
2018-03-30T12:32:47.729Z,11.42
2018-03-30T12:33:47.739Z,11.35
2018-03-30T12:34:47.501Z,11.4
2018-03-30T12:35:47.788Z,11.44
2018-03-30T12:36:47.646Z,11.47
2018-03-30T12:37:47.564Z,11.47
2018-03-30T12:38:47.584Z,11.57
2018-03-30T12:39:47.605Z,11.55
2018-03-30T12:40:47.885Z,11.57
2018-03-30T12:41:47.905Z,11.65
2018-03-30T12:42:47.926Z,11.7
2018-03-30T12:43:47.947Z,11.76
2018-03-30T12:44:47.711Z,11.73
2018-03-30T12:45:47.992Z,11.67
2018-03-30T12:46:47.750Z,11.52
2018-03-30T12:48:02.695Z,11.47
2018-03-30T12:48:48.051Z,11.46
2018-03-30T12:49:48.073Z,11.6
2018-03-30T12:50:48.092Z,11.61
2018-03-30T12:52:02.777Z,11.72
2018-03-30T12:52:48.136Z,11.75
2018-03-30T12:53:48.162Z,11.79
2018-03-30T12:54:47.658Z,11.79
2018-03-30T12:55:48.204Z,11.9
2018-03-30T12:56:47.959Z,11.99
2018-03-30T12:57:48.241Z,11.96
2018-03-30T12:59:48.288Z,11.79
2018-03-30T13:00:48.043Z,11.73
2018-03-30T13:01:48.325Z,11.78
2018-03-30T13:03:02.744Z,11.82
2018-03-30T13:03:48.108Z,11.85
2018-03-30T13:04:48.387Z,11.96
2018-03-30T13:05:48.149Z,11.73
2018-03-30T13:06:48.463Z,11.67
2018-03-30T13:07:48.457Z,11.52
2018-03-30T13:08:48.470Z,11.65
2018-03-30T13:10:48.252Z,11.58
2018-03-30T13:11:48.273Z,11.6
2018-03-30T13:12:48.554Z,11.62
2018-03-30T13:13:48.574Z,11.67
2018-03-30T13:14:48.609Z,11.61
2018-03-30T13:15:48.623Z,11.55
2018-03-30T13:16:48.636Z,11.35
2018-03-30T13:17:48.402Z,11.36
2018-03-30T13:18:48.684Z,11.46
2018-03-30T13:19:48.704Z,11.65
2018-03-30T13:20:48.721Z,11.52
2018-03-30T13:21:48.746Z,11.55
2018-03-30T13:22:48.848Z,11.52
2018-03-30T13:23:48.523Z,11.69
2018-03-30T13:24:48.811Z,11.65
2018-03-30T13:26:03.484Z,11.54
2018-03-30T13:27:03.506Z,11.51
2018-03-30T13:27:48.608Z,11.57
2018-03-30T13:28:48.895Z,11.55
2018-03-30T13:29:48.649Z,11.6
2018-03-30T13:30:48.927Z,11.6
2018-03-30T13:31:48.948Z,11.6
2018-03-30T13:33:48.732Z,11.83
2018-03-30T13:35:03.452Z,11.78
2018-03-30T13:35:49.035Z,11.94
2018-03-30T13:36:49.053Z,12.1
2018-03-30T13:37:49.074Z,11.98
2018-03-30T13:38:48.839Z,11.91
2018-03-30T13:39:49.174Z,11.86
2018-03-30T13:40:49.136Z,11.79
2018-03-30T13:41:48.904Z,11.8
2018-03-30T13:42:48.920Z,11.98
2018-03-30T13:43:49.202Z,11.96
2018-03-30T13:44:49.218Z,11.82
2018-03-30T13:45:49.242Z,11.73
2018-03-30T13:46:49.262Z,11.82
2018-03-30T13:47:49.283Z,11.8
2018-03-30T13:48:49.314Z,11.85
2018-03-30T13:49:49.064Z,11.94
2018-03-30T13:51:03.745Z,11.95
2018-03-30T13:51:49.106Z,11.95
2018-03-30T13:52:48.871Z,11.94
2018-03-30T13:53:49.419Z,11.96
2018-03-30T13:54:49.173Z,11.91
2018-03-30T13:55:49.451Z,11.88
2018-03-30T13:56:49.483Z,11.99
2018-03-30T13:57:49.496Z,12.04
2018-03-30T13:58:49.253Z,12.07
2018-03-30T14:00:04.191Z,12.16
2018-03-30T14:01:03.954Z,12.14
2018-03-30T14:01:49.316Z,12.14
2018-03-30T14:02:49.078Z,12.1
2018-03-30T14:03:49.616Z,12.16
2018-03-30T14:04:49.378Z,12.1
2018-03-30T14:05:49.658Z,12.2
2018-03-30T14:07:04.082Z,12.07
2018-03-30T14:07:49.441Z,12.01
2018-03-30T14:09:49.482Z,12.05
2018-03-30T14:10:49.767Z,12.28
2018-03-30T14:12:04.445Z,12.37